createdAt,value
2022-08-22T00:03:18.366Z,999.83
2022-08-22T00:09:06.661Z,999.83
2022-08-22T00:14:54.185Z,999.86
2022-08-22T00:20:41.565Z,999.82
2022-08-22T00:26:31.146Z,999.83
2022-08-22T00:32:19.370Z,999.8
2022-08-22T00:38:06.707Z,999.77
2022-08-22T00:44:07.098Z,999.76
2022-08-22T00:50:04.653Z,999.72
2022-08-22T00:56:00.097Z,999.7
2022-08-22T01:01:48.255Z,999.65
2022-08-22T01:07:41.197Z,999.65
2022-08-22T01:13:33.819Z,999.64
2022-08-22T01:19:29.689Z,999.61
2022-08-22T01:25:34.687Z,999.58
2022-08-22T01:31:34.206Z,999.57
2022-08-22T01:37:26.685Z,999.62
2022-08-22T01:43:17.290Z,999.62
2022-08-22T01:49:05.655Z,999.6
2022-08-22T01:54:54.032Z,999.6
2022-08-22T02:00:42.354Z,999.47
2022-08-22T02:06:31.779Z,999.48
2022-08-22T02:12:25.103Z,999.48
2022-08-22T02:18:20.167Z,999.5
2022-08-22T02:24:06.121Z,999.47
2022-08-22T02:29:54.383Z,999.4
2022-08-22T02:35:40.690Z,999.35
2022-08-22T02:41:31.875Z,999.36
2022-08-22T02:47:21.380Z,999.34
2022-08-22T02:53:09.360Z,999.32
2022-08-22T02:59:00.322Z,999.28
2022-08-22T03:04:52.726Z,999.18
2022-08-22T03:10:39.964Z,999.15
2022-08-22T03:16:27.324Z,999.15
2022-08-22T03:22:17.279Z,999.12
2022-08-22T03:28:03.646Z,999.09
2022-08-22T03:33:51.862Z,999.06
2022-08-22T03:39:51.270Z,999.14
2022-08-22T03:45:48.293Z,999.15
2022-08-22T03:51:40.962Z,999.15
2022-08-22T03:57:38.432Z,999.12
2022-08-22T04:03:40.040Z,999.15
2022-08-22T04:09:34.137Z,999.28
2022-08-22T04:15:31.209Z,999.32
2022-08-22T04:21:29.080Z,999.37
2022-08-22T04:27:18.594Z,999.37
2022-08-22T04:33:07.903Z,999.35
2022-08-22T04:38:54.380Z,999.32
2022-08-22T04:44:39.806Z,999.25
2022-08-22T04:50:26.709Z,999.22
2022-08-22T04:56:15.419Z,999.21
2022-08-22T05:02:02.142Z,999.19
2022-08-22T05:07:49.806Z,999.19
2022-08-22T05:13:34.869Z,999.12
2022-08-22T05:19:31.293Z,998.97
2022-08-22T05:25:18.510Z,998.84
2022-08-22T05:31:04.775Z,998.98
2022-08-22T05:36:50.302Z,999.09
2022-08-22T05:42:37.631Z,999.08
2022-08-22T05:48:22.804Z,999.12
2022-08-22T05:54:10.083Z,999.18
2022-08-22T05:59:58.278Z,999.16
2022-08-22T06:05:43.976Z,999.21
2022-08-22T06:11:34.922Z,999.24
2022-08-22T06:17:21.954Z,999.29
2022-08-22T06:23:06.487Z,999.14
2022-08-22T06:28:56.061Z,999.17
2022-08-22T06:34:41.538Z,999.14
2022-08-22T06:40:28.370Z,999.17
2022-08-22T06:46:15.308Z,999.32
2022-08-22T06:52:05.909Z,999.39
2022-08-22T06:57:50.626Z,999.5
2022-08-22T07:03:36.391Z,999.54
2022-08-22T07:09:23.663Z,999.55
2022-08-22T07:15:18.479Z,999.66
2022-08-22T07:21:03.326Z,999.69
2022-08-22T07:26:52.822Z,999.8
2022-08-22T07:32:41.326Z,999.84
2022-08-22T07:38:31.106Z,999.9
2022-08-22T07:44:18.019Z,999.9
2022-08-22T07:50:03.670Z,999.8
2022-08-22T07:55:50.790Z,999.74
2022-08-22T08:01:35.049Z,999.66
2022-08-22T08:07:21.570Z,999.64
2022-08-22T08:13:07.591Z,999.66
2022-08-22T08:18:54.611Z,999.57
2022-08-22T08:24:43.813Z,999.47
2022-08-22T08:30:33.999Z,999.45
2022-08-22T08:36:25.254Z,999.39
2022-08-22T08:42:18.384Z,999.37
2022-08-22T08:48:14.450Z,999.25
2022-08-22T08:54:13.887Z,999.26
2022-08-22T09:00:04.958Z,999.17
2022-08-22T09:06:01.800Z,999.07
2022-08-22T09:12:00.002Z,999.06
2022-08-22T09:17:54.844Z,999.06
2022-08-22T09:24:10.606Z,999
2022-08-22T09:30:05.461Z,999.02
2022-08-22T09:35:54.800Z,999.02
2022-08-22T09:41:52.426Z,999.01
2022-08-22T09:47:43.609Z,998.91
2022-08-22T09:53:34.917Z,998.89
2022-08-22T09:59:22.731Z,998.96
2022-08-22T10:05:35.345Z,998.88
2022-08-22T10:11:25.497Z,998.87
2022-08-22T10:17:22.330Z,998.84
2022-08-22T10:23:12.664Z,998.71
2022-08-22T10:29:07.678Z,998.61
2022-08-22T10:34:56.066Z,998.55
2022-08-22T10:40:43.979Z,998.57
2022-08-22T10:46:34.498Z,998.48
2022-08-22T10:52:21.981Z,998.52
2022-08-22T10:58:10.136Z,998.47
2022-08-22T11:04:00.047Z,998.44
2022-08-22T11:09:55.217Z,998.42
2022-08-22T11:15:59.522Z,998.39
2022-08-22T11:21:59.507Z,998.33
2022-08-22T11:27:54.121Z,998.21
2022-08-22T11:33:47.687Z,998.24
2022-08-22T11:39:38.880Z,998.17
2022-08-22T11:45:28.248Z,998.11
2022-08-22T11:51:25.733Z,998.08
2022-08-22T11:57:18.475Z,998.05
2022-08-22T12:03:09.284Z,998.05
2022-08-22T12:09:14.327Z,998
2022-08-22T12:15:10.098Z,998
2022-08-22T12:21:10.058Z,998.03
2022-08-22T12:27:01.962Z,997.94
2022-08-22T12:33:05.023Z,997.92
2022-08-22T12:39:00.690Z,997.87
2022-08-22T12:44:50.187Z,997.78
2022-08-22T12:50:39.483Z,997.7
2022-08-22T12:56:34.174Z,997.59
2022-08-22T13:02:25.364Z,997.62
2022-08-22T13:08:12.531Z,997.62
2022-08-22T13:14:00.913Z,997.55
2022-08-22T13:19:53.252Z,997.5
2022-08-22T13:25:43.286Z,997.44
2022-08-22T13:31:34.230Z,997.42
2022-08-22T13:37:25.956Z,997.43
2022-08-22T13:43:15.097Z,997.36
2022-08-22T13:49:02.170Z,997.33
2022-08-22T13:54:54.747Z,997.38
2022-08-22T14:00:57.331Z,997.36
2022-08-22T14:06:46.522Z,997.43
2022-08-22T14:12:49.972Z,997.4
2022-08-22T14:18:34.602Z,997.46
2022-08-22T14:24:28.003Z,997.48
2022-08-22T14:30:14.317Z,997.33
2022-08-22T14:36:03.605Z,997.28
2022-08-22T14:42:02.322Z,997.23
2022-08-22T14:48:14.328Z,997.19
2022-08-22T14:54:06.281Z,997.2
2022-08-22T14:59:55.083Z,997.14
2022-08-22T15:05:46.581Z,997.15
2022-08-22T15:11:33.006Z,997.24
2022-08-22T15:17:23.897Z,997.25
2022-08-22T15:23:16.190Z,997.28
2022-08-22T15:29:05.222Z,997.24
2022-08-22T15:34:53.270Z,997.27
2022-08-22T15:40:41.846Z,997.25
2022-08-22T15:46:31.279Z,997.14
2022-08-22T15:52:24.104Z,997.14
2022-08-22T15:58:14.859Z,997.19
2022-08-22T16:04:00.654Z,997.22
2022-08-22T16:09:47.430Z,997.03
2022-08-22T16:15:42.235Z,997.01
2022-08-22T16:21:36.304Z,997.11
2022-08-22T16:27:22.962Z,997.04
2022-08-22T16:33:18.089Z,997
2022-08-22T16:39:01.683Z,996.95
2022-08-22T16:44:46.638Z,996.85
2022-08-22T16:50:36.496Z,996.75
2022-08-22T16:56:27.187Z,996.76
2022-08-22T17:02:30.269Z,996.92
2022-08-22T17:08:21.538Z,997.5
2022-08-22T17:14:13.042Z,997.46
2022-08-22T17:20:02.935Z,997.35
2022-08-22T17:25:55.125Z,997.34
2022-08-22T17:31:44.314Z,997.42
2022-08-22T17:37:33.393Z,997.26
2022-08-22T17:43:24.634Z,997.17
2022-08-22T17:49:17.178Z,997.17
2022-08-22T17:55:03.794Z,997.2
2022-08-22T18:00:50.674Z,997.17
2022-08-22T18:06:37.070Z,997.24
2022-08-22T18:12:24.883Z,997.34
2022-08-22T18:18:15.333Z,997.37
2022-08-22T18:24:01.259Z,997.38
2022-08-22T18:29:50.258Z,997.36
2022-08-22T18:35:41.229Z,997.47
2022-08-22T18:41:32.460Z,997.5
2022-08-22T18:47:21.351Z,997.51
2022-08-22T18:53:09.509Z,997.57
2022-08-22T18:59:06.473Z,997.71
2022-08-22T19:05:06.914Z,997.79
2022-08-22T19:10:55.831Z,997.87
2022-08-22T19:16:50.243Z,997.9
2022-08-22T19:22:34.786Z,997.91
2022-08-22T19:28:31.967Z,998.03
2022-08-22T19:34:27.318Z,997.98
2022-08-22T19:40:12.904Z,998.11
2022-08-22T19:45:56.985Z,998.1
2022-08-22T19:51:40.264Z,998.19
2022-08-22T19:57:28.485Z,998.19
2022-08-22T20:03:16.314Z,998.2
2022-08-22T20:09:10.822Z,998.2
2022-08-22T20:14:54.429Z,998.13
2022-08-22T20:20:44.608Z,998.13
2022-08-22T20:26:28.481Z,998.05
2022-08-22T20:32:15.421Z,998.09
2022-08-22T20:38:07.455Z,998.12
2022-08-22T20:43:53.024Z,998.11
2022-08-22T20:49:41.887Z,998.08
2022-08-22T20:55:32.319Z,998.15
2022-08-22T21:01:16.553Z,998.06
2022-08-22T21:07:03.395Z,998.08
2022-08-22T21:12:52.806Z,998.08
2022-08-22T21:18:36.997Z,998.08
2022-08-22T21:24:21.722Z,998.09
2022-08-22T21:30:06.791Z,998.03
2022-08-22T21:35:54.942Z,998.13
2022-08-22T21:41:39.551Z,998.18
2022-08-22T21:47:31.624Z,998.24
2022-08-22T21:53:19.979Z,998.23
2022-08-22T21:59:16.486Z,998.28
2022-08-22T22:05:02.706Z,998.32
2022-08-22T22:10:49.542Z,998.3
2022-08-22T22:16:34.429Z,998.21
2022-08-22T22:22:17.821Z,998.26
2022-08-22T22:28:03.345Z,998.27
2022-08-22T22:33:47.208Z,998.28
2022-08-22T22:39:32.255Z,998.37
2022-08-22T22:45:15.582Z,998.33
2022-08-22T22:50:59.113Z,998.29
2022-08-22T22:56:42.511Z,998.3
2022-08-22T23:02:30.815Z,998.34
2022-08-22T23:08:14.211Z,998.39
2022-08-22T23:13:57.587Z,998.39
2022-08-22T23:19:41.070Z,998.39
2022-08-22T23:25:30.680Z,998.38
2022-08-22T23:31:15.575Z,998.39
2022-08-22T23:36:59.613Z,998.38
2022-08-22T23:42:43.078Z,998.4
2022-08-22T23:48:27.705Z,998.42
2022-08-22T23:54:11.029Z,998.48
2022-08-22T23:59:59.729Z,998.46
